createdAt,value
2018-07-23T00:02:09.573Z,4.80
2018-07-23T00:04:38.255Z,4.40
2018-07-23T00:07:06.812Z,4.87
2018-07-23T00:09:35.497Z,4.93
2018-07-23T00:12:04.270Z,4.37
2018-07-23T00:14:33.040Z,4.30
2018-07-23T00:17:01.822Z,4.57
2018-07-23T00:19:30.712Z,4.87
2018-07-23T00:21:59.597Z,4.57
2018-07-23T00:24:28.510Z,4.57
2018-07-23T00:26:57.284Z,4.87
2018-07-23T00:29:26.137Z,4.63
2018-07-23T00:31:54.693Z,4.73
2018-07-23T00:34:23.405Z,3.93
2018-07-23T00:36:51.969Z,4.73
2018-07-23T00:39:20.744Z,4.50
2018-07-23T00:45:04.405Z,4.73
2018-07-23T00:47:33.225Z,4.70
2018-07-23T00:50:01.986Z,4.40
2018-07-23T00:52:30.770Z,5.33
2018-07-23T00:54:59.559Z,4.93
2018-07-23T00:57:28.597Z,4.70
2018-07-23T00:59:57.615Z,5.13
2018-07-23T01:02:26.236Z,5.07
2018-07-23T01:04:54.987Z,4.70
2018-07-23T01:07:24.140Z,4.97
2018-07-23T01:09:53.385Z,4.80
2018-07-23T01:12:25.709Z,4.90
2018-07-23T01:14:54.593Z,5.07
2018-07-23T01:17:23.349Z,5.53
2018-07-23T01:19:53.113Z,5.67
2018-07-23T01:22:22.498Z,5.07
2018-07-23T01:24:51.162Z,5.50
2018-07-23T01:27:20.231Z,5.77
2018-07-23T01:29:49.192Z,5.30
2018-07-23T01:32:18.455Z,5.03
2018-07-23T01:34:47.376Z,4.60
2018-07-23T01:37:16.517Z,5.30
2018-07-23T01:39:45.201Z,4.27
2018-07-23T01:42:13.961Z,4.23
2018-07-23T01:44:42.717Z,4.70
2018-07-23T01:47:11.628Z,4.90
2018-07-23T01:49:40.229Z,5.27
2018-07-23T01:52:08.888Z,5.70
2018-07-23T01:54:37.453Z,6.50
2018-07-23T01:57:06.112Z,7.80
2018-07-23T01:59:34.928Z,7.63
2018-07-23T02:02:03.696Z,8.13
2018-07-23T02:04:36.540Z,8.37
2018-07-23T02:07:05.625Z,6.90
2018-07-23T02:09:34.312Z,6.70
2018-07-23T02:12:03.122Z,7.23
2018-07-23T02:14:31.793Z,6.10
2018-07-23T02:17:00.550Z,6.40
2018-07-23T02:19:29.324Z,6.37
2018-07-23T02:21:58.540Z,6.03
2018-07-23T02:24:27.388Z,6.07
2018-07-23T02:26:56.130Z,6.60
2018-07-23T02:29:24.924Z,5.93
2018-07-23T02:31:53.516Z,7.90
2018-07-23T02:34:22.233Z,7.00
2018-07-23T02:36:51.029Z,6.37
2018-07-23T02:39:19.821Z,6.90
2018-07-23T02:41:48.729Z,5.53
2018-07-23T02:44:17.550Z,6.23
2018-07-23T02:46:46.329Z,6.90
2018-07-23T02:49:15.138Z,7.20
2018-07-23T02:51:43.727Z,6.30
2018-07-23T02:54:12.425Z,6.60
2018-07-23T02:56:41.181Z,6.53
2018-07-23T02:59:09.960Z,7.00
2018-07-23T03:01:38.708Z,6.30
2018-07-23T03:04:07.768Z,6.37
2018-07-23T03:06:36.349Z,6.60
2018-07-23T03:09:06.850Z,7.03
2018-07-23T03:11:35.866Z,6.37
2018-07-23T03:14:04.629Z,6.77
2018-07-23T03:16:33.430Z,6.27
2018-07-23T03:19:02.201Z,7.07
2018-07-23T03:21:31.116Z,6.77
2018-07-23T03:23:59.981Z,6.80
2018-07-23T03:26:28.952Z,6.63
2018-07-23T03:28:57.617Z,6.47
2018-07-23T03:31:26.376Z,6.23
2018-07-23T03:33:55.468Z,7.50
2018-07-23T03:36:24.295Z,7.17
2018-07-23T03:38:53.047Z,6.13
2018-07-23T03:41:21.823Z,6.77
2018-07-23T03:43:50.576Z,7.13
2018-07-23T03:46:19.369Z,6.47
2018-07-23T03:48:48.112Z,6.10
2018-07-23T03:51:16.891Z,6.13
2018-07-23T03:53:45.641Z,6.27
2018-07-23T03:56:14.436Z,6.80
2018-07-23T03:58:43.176Z,6.67
2018-07-23T04:01:11.915Z,5.87
2018-07-23T04:03:40.828Z,6.60
2018-07-23T04:06:09.588Z,6.93
2018-07-23T04:08:38.368Z,7.30
2018-07-23T04:11:07.365Z,6.60
2018-07-23T04:13:36.104Z,6.37
2018-07-23T04:16:04.797Z,6.93
2018-07-23T04:18:33.477Z,6.47
2018-07-23T04:21:02.276Z,6.70
2018-07-23T04:23:31.393Z,6.33
2018-07-23T04:25:59.912Z,6.53
2018-07-23T04:28:28.577Z,6.20
2018-07-23T04:30:57.333Z,5.83
2018-07-23T04:33:26.101Z,6.07
2018-07-23T04:35:54.694Z,6.37
2018-07-23T04:38:23.360Z,6.20
2018-07-23T04:40:52.240Z,5.93
2018-07-23T04:43:21.031Z,6.00
2018-07-23T04:45:49.793Z,5.70
2018-07-23T04:48:18.539Z,5.90
2018-07-23T04:50:47.330Z,6.03
2018-07-23T04:53:16.385Z,5.40
2018-07-23T04:55:45.414Z,5.60
2018-07-23T04:58:14.003Z,6.00
2018-07-23T05:00:42.721Z,5.30
2018-07-23T05:03:11.532Z,5.93
2018-07-23T05:05:40.287Z,5.77
2018-07-23T05:08:09.027Z,5.43
2018-07-23T05:10:37.768Z,5.60
2018-07-23T05:13:06.593Z,5.17
2018-07-23T05:15:35.327Z,6.17
2018-07-23T05:18:04.035Z,5.67
2018-07-23T05:20:32.789Z,5.23
2018-07-23T05:23:01.388Z,5.50
2018-07-23T05:25:30.069Z,5.50
2018-07-23T05:27:58.953Z,5.90
2018-07-23T05:30:27.729Z,5.37
2018-07-23T05:32:56.269Z,5.13
2018-07-23T05:35:24.968Z,5.40
2018-07-23T05:37:53.736Z,5.83
2018-07-23T05:40:22.549Z,6.60
2018-07-23T05:42:51.364Z,6.20
2018-07-23T05:45:20.088Z,6.43
2018-07-23T05:47:48.820Z,6.43
2018-07-23T05:50:17.550Z,6.97
2018-07-23T05:52:46.325Z,6.33
2018-07-23T05:55:15.285Z,5.83
2018-07-23T05:57:44.119Z,6.53
2018-07-23T06:00:12.845Z,6.57
2018-07-23T06:02:41.593Z,6.47
2018-07-23T06:05:10.341Z,5.47
2018-07-23T06:07:39.100Z,6.90
2018-07-23T06:10:07.852Z,6.50
2018-07-23T06:12:36.648Z,5.90
2018-07-23T06:15:05.935Z,5.87
2018-07-23T06:17:34.892Z,5.77
2018-07-23T06:20:03.665Z,5.90
2018-07-23T06:22:32.405Z,6.03
2018-07-23T06:25:01.460Z,6.47
2018-07-23T06:27:30.404Z,6.40
2018-07-23T06:29:59.176Z,7.43
2018-07-23T06:32:27.920Z,6.20
2018-07-23T06:34:56.945Z,6.73
2018-07-23T06:37:25.588Z,6.40
2018-07-23T06:39:54.065Z,7.23
2018-07-23T06:42:22.741Z,6.17
2018-07-23T06:44:51.548Z,7.00
2018-07-23T06:47:20.349Z,6.37
2018-07-23T06:49:49.104Z,7.13
2018-07-23T06:52:17.861Z,5.93
2018-07-23T06:54:46.414Z,7.73
2018-07-23T06:57:15.112Z,7.07
2018-07-23T06:59:43.877Z,7.47
2018-07-23T07:02:12.521Z,5.10
2018-07-23T07:04:41.396Z,5.00
2018-07-23T07:07:10.012Z,5.70
2018-07-23T07:09:38.718Z,6.03
2018-07-23T07:12:08.252Z,5.37
2018-07-23T07:14:37.045Z,4.97
2018-07-23T07:17:05.957Z,4.73
2018-07-23T07:19:34.508Z,4.10
2018-07-23T07:22:03.217Z,5.00
2018-07-23T07:24:32.133Z,4.00
2018-07-23T07:27:00.889Z,3.90
2018-07-23T07:29:29.648Z,4.27
2018-07-23T07:31:58.425Z,3.67
2018-07-23T07:34:27.252Z,4.37
2018-07-23T07:36:56.049Z,4.10
2018-07-23T07:39:24.632Z,4.80
2018-07-23T07:41:53.413Z,3.57
2018-07-23T07:44:22.455Z,3.80
2018-07-23T07:46:51.297Z,4.00
2018-07-23T07:49:20.205Z,3.30
2018-07-23T07:51:48.960Z,4.10
2018-07-23T07:54:18.240Z,3.60
2018-07-23T07:56:46.973Z,3.87
2018-07-23T07:59:15.634Z,4.40
2018-07-23T08:01:44.048Z,3.07
2018-07-23T08:04:12.556Z,3.07
2018-07-23T08:06:41.396Z,3.30
2018-07-23T08:09:10.565Z,3.20
2018-07-23T08:11:40.084Z,3.30
2018-07-23T08:14:08.868Z,3.00
2018-07-23T08:16:37.676Z,3.47
2018-07-23T08:19:06.570Z,3.40
2018-07-23T08:21:35.369Z,2.87
2018-07-23T08:24:04.119Z,3.30
2018-07-23T08:26:32.978Z,3.70
2018-07-23T08:29:01.745Z,3.87
2018-07-23T08:31:30.381Z,4.50
2018-07-23T08:33:59.022Z,3.73
2018-07-23T08:36:27.881Z,4.10
2018-07-23T08:38:56.939Z,4.27
2018-07-23T08:41:25.709Z,3.87
2018-07-23T08:43:54.521Z,4.40
2018-07-23T08:46:23.277Z,3.80
2018-07-23T08:48:52.001Z,4.67
2018-07-23T08:51:20.743Z,3.60
2018-07-23T08:53:49.513Z,4.87
2018-07-23T08:56:18.301Z,4.57
2018-07-23T08:58:47.213Z,3.80
2018-07-23T09:01:15.784Z,4.10
2018-07-23T09:03:44.621Z,4.57
2018-07-23T09:06:13.448Z,4.63
2018-07-23T09:08:42.333Z,4.13
2018-07-23T09:11:11.057Z,3.90
2018-07-23T09:13:39.770Z,4.40
2018-07-23T09:16:08.597Z,4.30
2018-07-23T09:18:37.468Z,3.73
2018-07-23T09:21:06.589Z,3.83
2018-07-23T09:23:35.387Z,3.67
2018-07-23T09:26:04.242Z,3.70
2018-07-23T09:28:33.221Z,3.63
2018-07-23T09:31:01.803Z,3.70
2018-07-23T09:33:30.256Z,3.87
2018-07-23T09:35:58.945Z,3.73
2018-07-23T09:38:27.721Z,3.63
2018-07-23T09:40:56.328Z,4.17
2018-07-23T09:43:25.014Z,3.90
2018-07-23T09:45:53.784Z,3.43
2018-07-23T09:48:22.464Z,3.70
2018-07-23T09:50:50.951Z,3.53
2018-07-23T09:53:19.634Z,3.77
2018-07-23T09:55:48.401Z,3.57
2018-07-23T09:58:17.241Z,3.00
2018-07-23T10:00:51.305Z,3.20
2018-07-23T10:03:20.157Z,3.10
2018-07-23T10:05:48.841Z,3.20
2018-07-23T10:08:17.665Z,4.03
2018-07-23T10:10:46.403Z,3.47
2018-07-23T10:13:15.151Z,3.83
2018-07-23T10:15:43.900Z,3.60
2018-07-23T10:18:12.632Z,3.30
2018-07-23T10:20:41.432Z,3.20
2018-07-23T10:23:10.305Z,3.50
2018-07-23T10:25:39.052Z,3.70
2018-07-23T10:28:07.893Z,3.83
2018-07-23T10:30:36.769Z,3.23
2018-07-23T10:33:05.824Z,3.40
2018-07-23T10:35:34.580Z,3.70
2018-07-23T10:38:03.156Z,2.83
2018-07-23T10:40:31.628Z,2.90
2018-07-23T10:43:00.099Z,3.90
2018-07-23T10:45:28.778Z,3.60
2018-07-23T10:47:57.676Z,3.40
2018-07-23T10:50:26.424Z,3.43
2018-07-23T10:52:55.193Z,3.30
2018-07-23T10:55:24.062Z,3.10
2018-07-23T10:57:52.645Z,3.20
2018-07-23T11:00:21.360Z,3.57
2018-07-23T11:02:50.264Z,2.80
2018-07-23T11:05:18.804Z,3.07
2018-07-23T11:07:47.297Z,3.57
2018-07-23T11:10:16.101Z,3.13
2018-07-23T11:12:44.872Z,3.43
2018-07-23T11:15:13.683Z,3.13
2018-07-23T11:17:42.457Z,3.53
2018-07-23T11:20:12.534Z,2.83
2018-07-23T11:22:41.560Z,3.20
2018-07-23T11:25:38.810Z,3.40
2018-07-23T11:27:39.133Z,3.80
2018-07-23T11:30:08.084Z,4.47
2018-07-23T11:32:37.105Z,4.13
2018-07-23T11:35:06.160Z,3.37
2018-07-23T11:37:34.908Z,3.30
2018-07-23T11:40:03.673Z,4.07
2018-07-23T11:42:32.429Z,3.57
2018-07-23T11:45:01.347Z,3.97
2018-07-23T11:47:30.126Z,3.40
2018-07-23T11:49:58.917Z,3.13
2018-07-23T11:52:27.705Z,3.43
2018-07-23T11:55:03.000Z,3.60
2018-07-23T11:57:31.913Z,3.30
2018-07-23T12:00:00.728Z,3.40
2018-07-23T12:02:29.564Z,3.40
2018-07-23T12:04:58.548Z,3.10
2018-07-23T12:07:27.124Z,3.20
2018-07-23T12:09:55.692Z,2.80
2018-07-23T12:12:24.380Z,3.07
2018-07-23T12:14:53.157Z,4.23
2018-07-23T12:17:22.042Z,3.27
2018-07-23T12:19:50.560Z,3.20
2018-07-23T12:22:18.992Z,3.30
2018-07-23T12:24:47.696Z,3.53
2018-07-23T12:27:16.514Z,2.83
2018-07-23T12:29:45.081Z,3.20
2018-07-23T12:32:13.773Z,3.23
2018-07-23T12:34:42.665Z,3.13
2018-07-23T12:37:11.448Z,3.03
2018-07-23T12:39:40.310Z,2.83
2018-07-23T12:42:08.848Z,2.67
2018-07-23T12:44:37.513Z,2.57
2018-07-23T12:47:06.401Z,2.50
2018-07-23T12:49:35.085Z,2.50
2018-07-23T12:52:03.891Z,2.70
2018-07-23T12:54:32.765Z,2.53
2018-07-23T12:57:01.526Z,2.80
2018-07-23T12:59:30.359Z,2.93
2018-07-23T13:01:59.334Z,2.97
2018-07-23T13:04:28.286Z,2.60
2018-07-23T13:06:56.996Z,2.70
2018-07-23T13:09:25.756Z,2.87
2018-07-23T13:11:54.513Z,3.07
2018-07-23T13:14:23.269Z,2.50
2018-07-23T13:16:52.273Z,2.70
2018-07-23T13:19:21.017Z,2.77
2018-07-23T13:21:49.794Z,2.63
2018-07-23T13:24:18.536Z,2.60
2018-07-23T13:26:47.309Z,2.67
2018-07-23T13:29:16.083Z,2.60
2018-07-23T13:31:44.893Z,2.97
2018-07-23T13:34:13.685Z,2.50
2018-07-23T13:36:42.469Z,2.57
2018-07-23T13:39:13.030Z,2.87
2018-07-23T13:41:41.859Z,3.03
2018-07-23T13:44:11.619Z,2.50
2018-07-23T13:46:40.837Z,2.37
2018-07-23T13:49:09.408Z,3.07
2018-07-23T13:51:37.871Z,2.90
2018-07-23T13:54:06.625Z,2.50
2018-07-23T13:56:35.514Z,2.60
2018-07-23T13:59:04.332Z,2.73
2018-07-23T14:01:33.106Z,2.60
2018-07-23T14:04:02.037Z,2.57
2018-07-23T14:06:30.837Z,2.57
2018-07-23T14:08:59.585Z,2.67
2018-07-23T14:11:28.493Z,2.47
2018-07-23T14:13:57.266Z,2.00
2018-07-23T14:16:26.026Z,2.47
2018-07-23T14:18:54.784Z,2.70
2018-07-23T14:21:23.364Z,2.20
2018-07-23T14:23:52.130Z,3.07
2018-07-23T14:26:20.955Z,2.50
2018-07-23T14:28:49.746Z,2.40
2018-07-23T14:31:18.909Z,2.37
2018-07-23T14:33:47.697Z,2.40
2018-07-23T14:36:16.489Z,2.50
2018-07-23T14:38:45.247Z,2.17
2018-07-23T14:41:14.021Z,2.30
2018-07-23T14:43:42.756Z,2.47
2018-07-23T14:46:11.582Z,2.40
2018-07-23T14:48:40.333Z,2.40
2018-07-23T14:51:09.149Z,2.17
2018-07-23T14:53:37.737Z,2.50
2018-07-23T14:56:06.404Z,2.20
2018-07-23T14:58:35.001Z,2.27
2018-07-23T15:01:03.711Z,2.70
2018-07-23T15:03:32.514Z,2.53
2018-07-23T15:06:01.268Z,2.33
2018-07-23T15:08:30.017Z,2.33
2018-07-23T15:10:58.801Z,2.37
2018-07-23T15:13:27.552Z,2.20
2018-07-23T15:15:56.349Z,2.20
2018-07-23T15:18:25.177Z,2.10
2018-07-23T15:20:53.921Z,2.30
2018-07-23T15:23:22.765Z,2.73
2018-07-23T15:25:51.530Z,2.40
2018-07-23T15:28:20.374Z,2.10
2018-07-23T15:30:49.205Z,2.33
2018-07-23T15:33:18.077Z,2.27
2018-07-23T15:35:46.874Z,2.43
2018-07-23T15:38:15.769Z,2.60
2018-07-23T15:40:44.617Z,2.20
2018-07-23T15:43:13.412Z,2.80
2018-07-23T15:45:42.461Z,2.43
2018-07-23T15:48:11.635Z,2.60
2018-07-23T15:50:40.392Z,2.47
2018-07-23T15:53:09.146Z,2.37
2018-07-23T15:55:37.864Z,2.33
2018-07-23T15:58:06.607Z,2.60
2018-07-23T16:00:35.385Z,2.33
2018-07-23T16:03:04.150Z,2.87
2018-07-23T16:05:33.072Z,3.07
2018-07-23T16:08:01.934Z,2.90
2018-07-23T16:10:30.740Z,2.70
2018-07-23T16:12:59.514Z,2.53
2018-07-23T16:15:28.256Z,2.60
2018-07-23T16:17:57.171Z,2.70
2018-07-23T16:20:26.217Z,2.60
2018-07-23T16:22:54.957Z,2.53
2018-07-23T16:25:23.720Z,2.63
2018-07-23T16:27:52.584Z,2.17
2018-07-23T16:30:21.348Z,2.57
2018-07-23T16:32:50.198Z,2.40
2018-07-23T16:35:18.945Z,2.40
2018-07-23T16:37:47.749Z,2.47
2018-07-23T16:40:16.560Z,2.03
2018-07-23T16:42:45.388Z,2.60
2018-07-23T16:45:14.364Z,2.70
2018-07-23T16:47:43.749Z,2.50
2018-07-23T16:50:12.384Z,2.50
2018-07-23T16:52:41.161Z,2.47
2018-07-23T16:55:09.957Z,2.37
2018-07-23T16:57:38.837Z,2.60
2018-07-23T17:00:07.665Z,2.70
2018-07-23T17:02:36.587Z,2.70
2018-07-23T17:05:05.128Z,2.93
2018-07-23T17:07:33.841Z,5.77
2018-07-23T17:10:02.616Z,3.47
2018-07-23T17:12:31.429Z,2.70
2018-07-23T17:15:00.099Z,2.90
2018-07-23T17:17:29.149Z,3.20
2018-07-23T17:19:57.977Z,2.60
2018-07-23T17:22:26.785Z,2.50
2018-07-23T17:24:55.553Z,2.70
2018-07-23T17:27:24.304Z,3.00
2018-07-23T17:29:53.337Z,3.47
2018-07-23T17:32:22.580Z,2.60
2018-07-23T17:34:51.357Z,2.73
2018-07-23T17:37:20.440Z,3.00
2018-07-23T17:39:49.237Z,2.97
2018-07-23T17:42:17.997Z,3.00
2018-07-23T17:44:47.246Z,2.97
2018-07-23T17:47:16.121Z,2.73
2018-07-23T17:49:44.953Z,3.30
2018-07-23T17:52:13.743Z,3.40
2018-07-23T17:54:42.568Z,3.13
2018-07-23T17:57:11.406Z,3.27
2018-07-23T17:59:40.196Z,3.03
2018-07-23T18:02:09.248Z,3.30
2018-07-23T18:04:38.001Z,3.07
2018-07-23T18:07:06.793Z,2.90
2018-07-23T18:09:35.616Z,3.17
2018-07-23T18:12:04.382Z,3.47
2018-07-23T18:14:33.188Z,3.60
2018-07-23T18:17:02.024Z,3.17
2018-07-23T18:19:30.841Z,3.30
2018-07-23T18:21:59.738Z,3.17
2018-07-23T18:24:28.494Z,3.60
2018-07-23T18:26:57.243Z,3.20
2018-07-23T18:29:26.035Z,3.47
2018-07-23T18:31:54.758Z,3.43
2018-07-23T18:34:23.517Z,3.23
2018-07-23T18:36:52.239Z,2.93
2018-07-23T18:39:20.977Z,3.47
2018-07-23T18:41:50.094Z,3.30
2018-07-23T18:44:19.080Z,3.43
2018-07-23T18:46:48.114Z,3.80
2018-07-23T18:49:36.305Z,3.47
2018-07-23T18:52:05.364Z,5.00
2018-07-23T18:54:34.836Z,3.80
2018-07-23T18:57:05.278Z,3.40
2018-07-23T18:59:34.687Z,3.67
2018-07-23T19:02:04.729Z,3.20
2018-07-23T19:04:33.461Z,3.43
2018-07-23T19:07:02.073Z,3.57
2018-07-23T19:09:31.029Z,3.00
2018-07-23T19:12:01.193Z,3.20
2018-07-23T19:14:30.152Z,3.30
2018-07-23T19:16:59.845Z,3.70
2018-07-23T19:19:28.660Z,3.67
2018-07-23T19:21:57.413Z,3.20
2018-07-23T19:24:26.212Z,2.90
2018-07-23T19:26:54.996Z,3.43
2018-07-23T19:29:23.781Z,3.43
2018-07-23T19:31:52.555Z,3.30
2018-07-23T19:34:21.311Z,3.30
2018-07-23T19:36:50.176Z,3.80
2018-07-23T19:39:20.182Z,3.00
2018-07-23T19:41:50.286Z,3.07
2018-07-23T19:44:19.186Z,3.40
2018-07-23T19:46:47.776Z,3.83
2018-07-23T19:49:16.545Z,3.13
2018-07-23T19:51:45.342Z,3.27
2018-07-23T19:54:14.204Z,3.17
2018-07-23T19:56:42.984Z,3.80
2018-07-23T19:59:12.006Z,3.80
2018-07-23T20:01:40.832Z,3.40
2018-07-23T20:04:09.738Z,3.57
2018-07-23T20:06:38.504Z,4.43
2018-07-23T20:09:09.170Z,3.00
2018-07-23T20:11:37.931Z,3.20
2018-07-23T20:14:06.708Z,3.23
2018-07-23T20:16:35.505Z,3.27
2018-07-23T20:19:04.288Z,3.07
2018-07-23T20:21:33.099Z,3.10
2018-07-23T20:24:01.872Z,3.40
2018-07-23T20:26:32.177Z,3.20
2018-07-23T20:29:00.965Z,3.50
2018-07-23T20:31:29.714Z,3.30
2018-07-23T20:33:58.496Z,2.93
2018-07-23T20:36:27.245Z,3.40
2018-07-23T20:38:56.120Z,3.27
2018-07-23T20:41:24.909Z,3.13
2018-07-23T20:43:53.727Z,3.73
2018-07-23T20:46:23.089Z,3.43
2018-07-23T20:48:52.143Z,4.20
2018-07-23T20:51:20.885Z,4.27
2018-07-23T20:53:49.872Z,3.53
2018-07-23T20:56:18.489Z,4.07
2018-07-23T20:58:47.609Z,3.40
2018-07-23T21:01:16.473Z,3.40
2018-07-23T21:03:45.139Z,3.40
2018-07-23T21:06:13.817Z,3.80
2018-07-23T21:08:42.669Z,3.40
2018-07-23T21:11:11.593Z,3.80
2018-07-23T21:13:40.417Z,3.50
2018-07-23T21:16:09.002Z,3.53
2018-07-23T21:18:37.868Z,3.80
2018-07-23T21:21:06.875Z,3.60
2018-07-23T21:23:35.645Z,3.40
2018-07-23T21:26:04.617Z,3.60
2018-07-23T21:28:33.393Z,3.43
2018-07-23T21:31:02.145Z,3.37
2018-07-23T21:33:30.726Z,3.67
2018-07-23T21:35:59.392Z,3.37
2018-07-23T21:38:28.234Z,3.60
2018-07-23T21:40:56.776Z,3.90
2018-07-23T21:43:25.241Z,4.10
2018-07-23T21:45:53.954Z,3.83
2018-07-23T21:48:22.784Z,3.50
2018-07-23T21:50:51.545Z,3.67
2018-07-23T21:53:20.328Z,3.80
2018-07-23T21:55:48.903Z,3.73
2018-07-23T21:58:17.357Z,3.93
2018-07-23T22:00:46.023Z,3.77
2018-07-23T22:03:15.033Z,3.73
2018-07-23T22:05:43.933Z,3.90
2018-07-23T22:08:12.725Z,3.80
2018-07-23T22:10:41.478Z,3.70
2018-07-23T22:13:10.253Z,3.97
2018-07-23T22:15:38.985Z,4.20
2018-07-23T22:18:07.853Z,4.00
2018-07-23T22:20:36.717Z,4.20
2018-07-23T22:23:05.798Z,4.37
2018-07-23T22:25:34.550Z,4.03
2018-07-23T22:28:03.269Z,4.07
2018-07-23T22:30:31.938Z,4.67
2018-07-23T22:33:00.613Z,4.37
2018-07-23T22:35:29.361Z,4.40
2018-07-23T22:37:58.321Z,4.27
2018-07-23T22:40:26.847Z,4.43
2018-07-23T22:42:55.524Z,4.43
2018-07-23T22:45:24.388Z,3.97
2018-07-23T22:47:52.960Z,4.57
2018-07-23T22:50:21.831Z,5.30
2018-07-23T22:52:50.595Z,4.83
2018-07-23T22:55:19.371Z,5.30
2018-07-23T22:57:48.253Z,5.97
2018-07-23T23:00:17.096Z,5.47
2018-07-23T23:02:45.852Z,5.30
2018-07-23T23:05:14.641Z,5.30
2018-07-23T23:07:43.480Z,5.50
2018-07-23T23:10:12.336Z,5.00
2018-07-23T23:12:41.167Z,5.10
2018-07-23T23:15:09.972Z,4.77
2018-07-23T23:17:38.716Z,5.33
2018-07-23T23:20:07.540Z,5.20
2018-07-23T23:22:36.372Z,4.87
2018-07-23T23:25:05.120Z,5.27
2018-07-23T23:27:33.928Z,4.90
2018-07-23T23:30:02.637Z,4.97
2018-07-23T23:32:31.404Z,5.43
2018-07-23T23:35:00.162Z,5.33
2018-07-23T23:37:28.704Z,4.67
2018-07-23T23:39:57.381Z,5.70
2018-07-23T23:42:26.351Z,5.30
2018-07-23T23:44:55.505Z,5.27
2018-07-23T23:47:24.093Z,5.10
2018-07-23T23:49:52.769Z,5.13
2018-07-23T23:52:21.524Z,5.07
2018-07-23T23:54:50.309Z,4.87
2018-07-23T23:57:19.036Z,5.10
2018-07-23T23:59:47.632Z,5.50
